Time;durP1;ratioP1;P1;durP2;ratioP2;P2;SDS_P1;SDS_P2;PMS_P1;PMS_P2;Temp;Humidity;BMP_temperature;BMP_pressure;BME280_temperature;BME280_humidity;BME280_pressure;Samples;Min_cycle;Max_cycle;Signal;HPM_P1;HPM_P2
2023/06/10 00:01:43;;;;;;;11.25;7.90;;;14.80;99.90;;;;;;5067352;28;20520;-90
2023/06/10 00:04:08;;;;;;;11.05;8.13;;;14.80;99.90;;;;;;5085138;28;20942;-90
2023/06/10 00:06:37;;;;;;;10.40;8.20;;;14.70;99.90;;;;;;5083802;28;20406;-89
2023/06/10 00:09:04;;;;;;;12.40;8.00;;;14.60;99.90;;;;;;5084773;28;20479;-89
2023/06/10 00:11:31;;;;;;;13.65;8.27;;;14.60;99.90;;;;;;5067840;28;20401;-90
2023/06/10 00:13:57;;;;;;;11.10;7.83;;;14.60;99.90;;;;;;5084759;28;20401;-90
2023/06/10 00:16:22;;;;;;;11.43;7.88;;;14.60;99.90;;;;;;5067774;28;20458;-89
2023/06/10 00:18:51;;;;;;;12.13;8.07;;;14.50;99.90;;;;;;5067540;28;20437;-88
2023/06/10 00:21:16;;;;;;;10.02;7.80;;;14.50;99.90;;;;;;5067840;28;20436;-89
2023/06/10 00:23:42;;;;;;;11.90;8.35;;;14.50;99.90;;;;;;5084303;28;20390;-89
2023/06/10 00:26:08;;;;;;;12.15;7.72;;;14.50;99.90;;;;;;5084632;28;20393;-89
2023/06/10 00:28:34;;;;;;;9.90;7.30;;;14.40;99.90;;;;;;5083866;28;20433;-89
2023/06/10 00:31:00;;;;;;;10.77;7.63;;;14.40;99.90;;;;;;5069081;28;20402;-90
2023/06/10 00:33:26;;;;;;;11.55;7.70;;;14.30;99.90;;;;;;5088707;28;20410;-87
2023/06/10 00:35:51;;;;;;;9.98;8.02;;;14.40;99.90;;;;;;5088629;28;20772;-89
2023/06/10 00:38:17;;;;;;;9.50;7.77;;;14.20;99.90;;;;;;5071375;28;20421;-89
2023/06/10 00:40:43;;;;;;;12.07;8.00;;;14.20;99.90;;;;;;5087983;28;20494;-90
2023/06/10 00:43:08;;;;;;;11.30;8.82;;;14.20;99.90;;;;;;5088422;28;20912;-89
2023/06/10 00:45:34;;;;;;;10.60;8.20;;;14.10;99.90;;;;;;5070737;28;20471;-90
2023/06/10 00:48:01;;;;;;;10.85;8.02;;;14.10;99.90;;;;;;5088373;28;20505;-89
2023/06/10 00:50:27;;;;;;;10.88;7.65;;;14.00;99.90;;;;;;5087891;28;20880;-90
2023/06/10 00:52:54;;;;;;;11.68;8.52;;;14.70;99.90;;;;;;5087766;28;20459;-90
2023/06/10 00:55:20;;;;;;;11.27;7.87;;;14.00;99.90;;;;;;5088059;28;20703;-90
2023/06/10 00:57:48;;;;;;;11.07;7.55;;;13.90;99.90;;;;;;5087991;28;20438;-89
2023/06/10 01:00:15;;;;;;;10.25;7.50;;;13.90;99.90;;;;;;5087927;28;20465;-89
2023/06/10 01:02:41;;;;;;;12.70;8.45;;;13.90;99.90;;;;;;5070820;28;20445;-89
2023/06/10 01:05:08;;;;;;;10.35;8.55;;;14.10;99.90;;;;;;5070806;28;20506;-90
2023/06/10 01:07:49;;;;;;;12.23;8.63;;;13.80;99.90;;;;;;5087358;28;20531;-89
2023/06/10 01:10:27;;;;;;;11.60;8.13;;;13.80;99.90;;;;;;5087590;28;21179;-90
2023/06/10 01:13:02;;;;;;;11.82;8.50;;;13.70;99.90;;;;;;5071445;28;20418;-90
2023/06/10 01:15:31;;;;;;;9.63;7.70;;;13.60;99.90;;;;;;5087443;28;20405;-89
2023/06/10 01:17:59;;;;;;;10.18;7.75;;;13.70;99.90;;;;;;5071103;28;20398;-90
2023/06/10 01:20:29;;;;;;;11.65;8.90;;;13.50;99.90;;;;;;5087170;28;20468;-89
2023/06/10 01:22:57;;;;;;;11.20;7.90;;;13.50;99.90;;;;;;5087573;28;20966;-90
2023/06/10 01:25:27;;;;;;;13.23;8.13;;;13.40;99.90;;;;;;5087849;28;20489;-89
2023/06/10 01:28:10;;;;;;;11.73;8.20;;;13.40;99.90;;;;;;5086954;28;20445;-89
2023/06/10 01:30:50;;;;;;;9.07;7.82;;;13.30;99.90;;;;;;5088085;28;20841;-89
2023/06/10 01:33:27;;;;;;;11.40;7.90;;;13.30;99.90;;;;;;5087171;28;20418;-89
2023/06/10 01:35:58;;;;;;;9.35;7.60;;;13.30;99.90;;;;;;5087299;28;20491;-90
2023/06/10 01:38:26;;;;;;;11.32;7.95;;;13.30;99.90;;;;;;5087223;28;20405;-88
2023/06/10 01:40:55;;;;;;;11.00;7.90;;;13.20;99.90;;;;;;5086433;28;21095;-89
2023/06/10 01:43:21;;;;;;;10.40;8.38;;;13.20;99.90;;;;;;5069021;28;20689;-90
2023/06/10 01:45:47;;;;;;;10.43;7.80;;;13.10;99.90;;;;;;5086554;28;20390;-89
2023/06/10 01:48:12;;;;;;;10.50;8.63;;;13.10;99.90;;;;;;5087169;28;20915;-88
2023/06/10 01:50:38;;;;;;;11.55;8.43;;;13.30;99.90;;;;;;5086668;28;20417;-90
2023/06/10 01:53:05;;;;;;;9.93;7.80;;;13.10;99.90;;;;;;5086938;28;20418;-89
2023/06/10 01:55:31;;;;;;;12.38;8.15;;;13.10;99.90;;;;;;5086648;28;20405;-89
2023/06/10 01:57:56;;;;;;;11.43;8.05;;;13.00;99.90;;;;;;5086536;28;20419;-87
2023/06/10 02:00:22;;;;;;;9.60;7.90;;;13.00;99.90;;;;;;5087195;28;20429;-89
2023/06/10 02:02:48;;;;;;;11.37;8.37;;;13.00;99.90;;;;;;5086616;28;20475;-89
2023/06/10 02:05:13;;;;;;;11.57;8.50;;;13.00;99.90;;;;;;5070210;28;20838;-90
2023/06/10 02:07:39;;;;;;;10.83;8.30;;;13.00;99.90;;;;;;5069006;28;20513;-89
2023/06/10 02:10:06;;;;;;;10.15;8.02;;;12.90;99.90;;;;;;5086559;28;20406;-88
2023/06/10 02:12:31;;;;;;;12.63;8.25;;;12.90;99.90;;;;;;5069521;28;20455;-89
2023/06/10 02:14:57;;;;;;;8.73;7.73;;;12.90;99.90;;;;;;5086516;28;20485;-89
2023/06/10 02:17:23;;;;;;;10.75;8.25;;;12.80;99.90;;;;;;5086621;28;20410;-89
2023/06/10 02:19:52;;;;;;;11.43;7.87;;;12.90;99.90;;;;;;5085855;28;20406;-89
2023/06/10 02:22:23;;;;;;;10.38;8.20;;;12.90;99.90;;;;;;5086252;28;20434;-89
2023/06/10 02:24:49;;;;;;;11.88;8.02;;;12.80;99.90;;;;;;5085602;28;20406;-88
2023/06/10 02:27:16;;;;;;;12.20;8.60;;;12.80;99.90;;;;;;5086117;28;20421;-88
2023/06/10 02:29:41;;;;;;;10.68;8.48;;;12.90;99.90;;;;;;5068643;28;20823;-88
2023/06/10 02:32:07;;;;;;;10.65;8.23;;;12.90;99.90;;;;;;5069294;28;20394;-88
2023/06/10 02:34:33;;;;;;;11.05;8.23;;;12.90;99.90;;;;;;5069150;28;20394;-88
2023/06/10 02:36:59;;;;;;;11.60;7.90;;;12.80;99.90;;;;;;5085001;28;20476;-87
2023/06/10 02:39:25;;;;;;;9.73;7.80;;;12.80;99.90;;;;;;5086527;28;20455;-89
2023/06/10 02:41:51;;;;;;;10.43;7.95;;;12.80;99.90;;;;;;5068107;28;20429;-89
2023/06/10 02:44:18;;;;;;;11.40;8.17;;;12.80;99.90;;;;;;5085874;28;20416;-89
2023/06/10 02:46:44;;;;;;;10.15;7.90;;;12.90;99.90;;;;;;5068154;28;20452;-89
2023/06/10 02:49:09;;;;;;;11.57;7.85;;;13.00;99.90;;;;;;5085753;28;20437;-89
2023/06/10 02:51:35;;;;;;;11.33;8.30;;;12.70;99.90;;;;;;5085063;28;20417;-89
2023/06/10 02:54:01;;;;;;;11.38;8.18;;;12.70;99.90;;;;;;5085189;28;20448;-89
2023/06/10 02:56:27;;;;;;;10.25;8.02;;;12.70;99.90;;;;;;5085522;28;21050;-88
2023/06/10 02:58:53;;;;;;;12.17;8.47;;;12.70;99.90;;;;;;5085353;28;20420;-88
2023/06/10 03:01:18;;;;;;;10.97;8.50;;;12.70;99.90;;;;;;5068473;28;20976;-89
2023/06/10 03:03:46;;;;;;;10.23;8.13;;;12.80;99.90;;;;;;5068225;28;20406;-89
2023/06/10 03:06:12;;;;;;;10.25;7.97;;;12.50;99.90;;;;;;5068500;28;20415;-89
2023/06/10 03:08:38;;;;;;;10.87;8.73;;;12.50;99.90;;;;;;5085019;28;20442;-88
2023/06/10 03:11:04;;;;;;;14.25;9.13;;;12.50;99.90;;;;;;5085211;28;20406;-89
2023/06/10 03:13:30;;;;;;;10.57;8.77;;;12.50;99.90;;;;;;5068413;28;20394;-89
2023/06/10 03:15:56;;;;;;;12.70;9.93;;;12.40;99.90;;;;;;5068099;28;20455;-89
2023/06/10 03:18:25;;;;;;;12.70;9.65;;;12.40;99.90;;;;;;5085181;28;20489;-88
2023/06/10 03:20:51;;;;;;;12.57;9.30;;;12.40;99.90;;;;;;5084695;28;20448;-89
2023/06/10 03:23:18;;;;;;;12.23;9.68;;;12.40;99.90;;;;;;5085399;28;20398;-88
2023/06/10 03:25:44;;;;;;;15.70;10.35;;;12.30;99.90;;;;;;5084763;28;20768;-89
2023/06/10 03:28:10;;;;;;;12.88;10.05;;;12.60;99.90;;;;;;5084992;28;20418;-89
2023/06/10 03:30:37;;;;;;;13.77;10.43;;;12.30;99.90;;;;;;5084323;28;21113;-88
2023/06/10 03:33:03;;;;;;;13.48;10.90;;;12.30;99.90;;;;;;5084424;28;20493;-88
2023/06/10 03:35:29;;;;;;;12.93;10.83;;;12.30;99.90;;;;;;5084513;28;20453;-88
2023/06/10 03:37:55;;;;;;;12.32;10.82;;;12.30;99.90;;;;;;5067629;28;20406;-88
2023/06/10 03:40:20;;;;;;;13.63;10.83;;;12.30;99.90;;;;;;5084939;28;20448;-88
2023/06/10 03:42:46;;;;;;;13.48;10.23;;;12.30;99.90;;;;;;5083960;28;20564;-87
2023/06/10 03:45:12;;;;;;;13.27;10.53;;;12.30;99.90;;;;;;5084793;28;20407;-87
2023/06/10 03:47:38;;;;;;;14.70;10.38;;;12.30;99.90;;;;;;5084199;28;20390;-88
2023/06/10 03:50:04;;;;;;;13.68;10.40;;;12.60;99.90;;;;;;5084195;28;20425;-88
2023/06/10 03:52:30;;;;;;;12.63;10.57;;;12.30;99.90;;;;;;5067643;28;20769;-88
2023/06/10 03:54:56;;;;;;;13.37;10.80;;;12.40;99.90;;;;;;5084347;28;20416;-87
2023/06/10 03:57:22;;;;;;;12.20;11.00;;;12.80;99.90;;;;;;5067336;28;20410;-88
2023/06/10 03:59:47;;;;;;;13.00;10.50;;;12.40;99.90;;;;;;5067225;28;20973;-88
2023/06/10 04:02:13;;;;;;;14.43;10.80;;;12.40;99.90;;;;;;5084308;28;20421;-89
2023/06/10 04:04:39;;;;;;;13.57;10.27;;;12.50;99.90;;;;;;5083476;28;20520;-90
2023/06/10 04:07:05;;;;;;;13.77;10.10;;;12.50;99.90;;;;;;5066952;28;20406;-89
2023/06/10 04:09:31;;;;;;;12.73;9.43;;;12.50;99.90;;;;;;5084474;28;20428;-88
2023/06/10 04:11:57;;;;;;;12.52;9.43;;;12.60;99.90;;;;;;5084536;28;20840;-89
2023/06/10 04:14:23;;;;;;;13.87;9.90;;;12.70;99.90;;;;;;5067502;28;20457;-88
2023/06/10 04:16:50;;;;;;;11.75;9.20;;;12.80;99.90;;;;;;5066640;28;20410;-88
2023/06/10 04:19:16;;;;;;;12.70;9.45;;;12.70;99.90;;;;;;5084307;28;20836;-88
2023/06/10 04:21:42;;;;;;;11.38;9.40;;;12.80;99.90;;;;;;5083721;28;20430;-88
2023/06/10 04:24:07;;;;;;;12.38;9.40;;;12.90;99.90;;;;;;5067487;28;20954;-88
2023/06/10 04:26:35;;;;;;;11.10;9.77;;;13.00;99.90;;;;;;5068869;28;20413;-89
2023/06/10 04:29:01;;;;;;;12.23;9.35;;;13.10;99.90;;;;;;5087404;28;20928;-89
2023/06/10 04:31:27;;;;;;;11.30;8.82;;;13.20;99.90;;;;;;5087595;28;20405;-89
2023/06/10 04:33:53;;;;;;;11.07;9.02;;;13.30;99.90;;;;;;5086760;28;20400;-88
2023/06/10 04:36:19;;;;;;;11.23;8.30;;;13.30;99.90;;;;;;5070390;28;20823;-87
2023/06/10 04:38:45;;;;;;;12.20;8.07;;;13.90;99.90;;;;;;5086878;28;20915;-88
2023/06/10 04:41:11;;;;;;;10.40;8.23;;;13.60;99.90;;;;;;5087425;28;20434;-88
2023/06/10 04:43:36;;;;;;;11.90;7.63;;;13.80;99.90;;;;;;5086981;28;20859;-88
2023/06/10 04:46:02;;;;;;;12.10;8.07;;;14.20;99.90;;;;;;5087305;28;20932;-88
2023/06/10 04:48:28;;;;;;;10.47;7.63;;;14.30;99.90;;;;;;5086746;28;20403;-87
2023/06/10 04:50:53;;;;;;;13.23;8.40;;;14.20;99.90;;;;;;5087049;28;20761;-89
2023/06/10 04:53:20;;;;;;;13.80;7.77;;;14.50;99.90;;;;;;5087525;28;20416;-89
2023/06/10 04:55:46;;;;;;;11.65;7.80;;;14.50;99.90;;;;;;5070176;28;20412;-89
2023/06/10 04:58:11;;;;;;;10.93;7.88;;;14.60;99.90;;;;;;5121116;27;20760;-88
2023/06/10 05:00:37;;;;;;;11.47;7.53;;;14.80;99.90;;;;;;5070322;28;20728;-89
2023/06/10 05:03:03;;;;;;;10.13;7.88;;;14.90;99.90;;;;;;5070395;28;20417;-89
2023/06/10 05:05:28;;;;;;;10.73;7.67;;;15.20;99.90;;;;;;5086417;28;20401;-87
2023/06/10 05:07:54;;;;;;;13.43;7.63;;;15.20;99.90;;;;;;5070409;28;20481;-90
2023/06/10 05:10:19;;;;;;;12.27;8.17;;;15.50;99.90;;;;;;5070168;28;20411;-88
2023/06/10 05:12:45;;;;;;;10.25;7.40;;;15.40;99.90;;;;;;5103646;28;20408;-91
2023/06/10 05:15:11;;;;;;;9.50;7.40;;;15.60;99.90;;;;;;5087570;28;20415;-89
2023/06/10 05:17:37;;;;;;;11.95;7.40;;;15.70;99.90;;;;;;5072429;28;20432;-88
2023/06/10 05:20:03;;;;;;;11.95;7.80;;;16.00;99.90;;;;;;5074090;28;20400;-88
2023/06/10 05:22:29;;;;;;;12.18;7.85;;;16.00;99.90;;;;;;5090539;28;20409;-88
2023/06/10 05:24:57;;;;;;;10.85;7.50;;;16.10;99.90;;;;;;5090595;28;20397;-89
2023/06/10 05:27:24;;;;;;;11.93;7.28;;;16.30;99.90;;;;;;5073036;28;20420;-89
2023/06/10 05:29:51;;;;;;;12.30;7.85;;;16.30;99.90;;;;;;5090673;28;20423;-90
2023/06/10 05:32:17;;;;;;;10.55;7.50;;;16.50;99.90;;;;;;5073759;28;20495;-90
2023/06/10 05:34:43;;;;;;;10.77;7.80;;;16.60;99.90;;;;;;5090048;28;20491;-89
2023/06/10 05:37:08;;;;;;;10.65;7.20;;;16.70;99.90;;;;;;5090392;28;20538;-90
2023/06/10 05:39:37;;;;;;;12.73;7.20;;;16.90;99.90;;;;;;5090497;28;20424;-89
2023/06/10 05:42:04;;;;;;;10.50;7.53;;;16.90;99.90;;;;;;5073467;28;20456;-88
2023/06/10 05:44:30;;;;;;;12.50;7.10;;;17.00;99.90;;;;;;5089711;28;20400;-90
2023/06/10 05:46:55;;;;;;;10.27;7.20;;;17.20;99.90;;;;;;5090653;28;20422;-89
2023/06/10 05:49:21;;;;;;;11.60;7.32;;;17.30;99.90;;;;;;5089976;28;20419;-88
2023/06/10 05:51:46;;;;;;;10.60;6.90;;;17.40;99.90;;;;;;5073145;28;21076;-89
2023/06/10 05:54:12;;;;;;;11.93;6.50;;;17.60;99.90;;;;;;5073224;28;20404;-88
2023/06/10 05:56:37;;;;;;;10.55;6.40;;;17.60;99.90;;;;;;5089972;28;20396;-89
2023/06/10 05:59:03;;;;;;;11.07;6.90;;;17.80;99.90;;;;;;5090005;28;20469;-87
2023/06/10 06:01:29;;;;;;;10.07;6.18;;;18.10;99.90;;;;;;5089525;28;20511;-88
2023/06/10 06:03:54;;;;;;;9.60;6.00;;;18.10;99.90;;;;;;5089782;28;21024;-90
2023/06/10 06:06:20;;;;;;;11.43;6.97;;;18.00;99.90;;;;;;5123376;27;20420;-88
2023/06/10 06:08:46;;;;;;;10.70;6.50;;;18.20;99.90;;;;;;5072487;28;20401;-89
2023/06/10 06:11:12;;;;;;;9.60;6.45;;;18.50;99.90;;;;;;5090037;28;20959;-90
2023/06/10 06:13:37;;;;;;;11.43;6.60;;;18.50;99.90;;;;;;5106262;28;20947;-90
2023/06/10 06:16:03;;;;;;;9.60;6.30;;;18.50;99.90;;;;;;5089678;28;20914;-87
2023/06/10 06:18:28;;;;;;;10.27;6.50;;;18.60;99.90;;;;;;5089071;28;20400;-90
2023/06/10 06:20:54;;;;;;;10.43;6.70;;;18.70;99.90;;;;;;5089165;28;20443;-89
2023/06/10 06:23:20;;;;;;;11.63;6.50;;;18.70;99.90;;;;;;5089195;28;21047;-88
2023/06/10 06:25:45;;;;;;;9.50;6.15;;;18.80;99.90;;;;;;5089374;28;20416;-90
2023/06/10 06:28:11;;;;;;;9.13;6.00;;;18.90;99.90;;;;;;5088175;28;20480;-89
2023/06/10 06:30:36;;;;;;;10.05;5.57;;;19.50;99.90;;;;;;5071815;28;20492;-88
2023/06/10 06:33:02;;;;;;;8.20;5.10;;;19.20;99.90;;;;;;5072641;28;20411;-89
2023/06/10 06:35:31;;;;;;;8.23;5.22;;;19.30;99.90;;;;;;5071813;28;20938;-88
2023/06/10 06:37:58;;;;;;;7.73;5.67;;;19.40;99.90;;;;;;5072392;28;20400;-90
2023/06/10 06:40:24;;;;;;;9.47;5.30;;;19.60;99.90;;;;;;5071805;28;20554;-90
2023/06/10 06:42:50;;;;;;;8.93;5.38;;;19.50;99.90;;;;;;5072379;28;20498;-89
2023/06/10 06:45:15;;;;;;;8.38;5.40;;;19.60;99.90;;;;;;5071451;28;20408;-89
2023/06/10 06:47:41;;;;;;;8.00;5.27;;;19.60;99.90;;;;;;5088796;28;20453;-89
2023/06/10 06:50:07;;;;;;;7.40;4.80;;;19.80;99.90;;;;;;5072078;28;20953;-87
2023/06/10 06:52:32;;;;;;;8.80;4.97;;;19.90;99.90;;;;;;5071259;28;20416;-89
2023/06/10 06:54:58;;;;;;;7.40;5.20;;;20.10;99.90;;;;;;5089215;28;20454;-90
2023/06/10 06:57:23;;;;;;;8.97;5.00;;;19.90;99.90;;;;;;5071465;28;20710;-88
2023/06/10 06:59:49;;;;;;;8.57;4.97;;;20.10;99.90;;;;;;5105926;28;20400;-89
2023/06/10 07:02:15;;;;;;;9.07;5.25;;;20.20;99.90;;;;;;5105035;28;20606;-88
2023/06/10 07:04:41;;;;;;;8.60;5.43;;;20.20;99.90;;;;;;5088594;28;20610;-90
2023/06/10 07:07:09;;;;;;;11.05;5.30;;;20.40;99.90;;;;;;5071802;28;20405;-90
2023/06/10 07:09:34;;;;;;;8.15;5.35;;;20.40;99.90;;;;;;5088265;28;20412;-89
2023/06/10 07:12:00;;;;;;;9.87;6.03;;;20.40;99.90;;;;;;5071490;28;20427;-90
2023/06/10 07:14:26;;;;;;;9.18;5.60;;;20.50;99.90;;;;;;5071316;28;20413;-89
2023/06/10 07:16:51;;;;;;;10.30;5.18;;;20.90;99.90;;;;;;5088582;28;20404;-88
2023/06/10 07:19:17;;;;;;;7.83;4.97;;;20.70;99.90;;;;;;5088010;28;20404;-89
2023/06/10 07:21:43;;;;;;;7.33;4.90;;;20.80;99.90;;;;;;5105144;28;20489;-90
2023/06/10 07:24:08;;;;;;;10.07;5.35;;;20.90;99.90;;;;;;5088129;28;20433;-89
2023/06/10 07:26:34;;;;;;;8.87;5.30;;;21.30;99.90;;;;;;5087750;28;20408;-91
2023/06/10 07:28:59;;;;;;;7.60;4.90;;;21.00;99.90;;;;;;5088300;28;20401;-90
2023/06/10 07:31:25;;;;;;;7.47;4.80;;;21.10;99.90;;;;;;5088152;28;20421;-90
2023/06/10 07:33:50;;;;;;;9.50;5.40;;;21.30;99.90;;;;;;5088256;28;20759;-89
2023/06/10 07:36:16;;;;;;;8.20;4.97;;;21.60;99.90;;;;;;5071093;28;20385;-89
2023/06/10 07:38:42;;;;;;;7.90;4.70;;;21.50;99.90;;;;;;5122237;27;20448;-90
2023/06/10 07:41:08;;;;;;;8.60;4.68;;;21.60;99.90;;;;;;5087679;28;20428;-90
2023/06/10 07:43:34;;;;;;;6.53;4.20;;;21.70;99.90;;;;;;5071542;28;20401;-90
2023/06/10 07:46:00;;;;;;;10.05;4.72;;;21.80;99.90;;;;;;5121889;27;20400;-87
2023/06/10 07:48:26;;;;;;;8.00;4.37;;;21.70;99.90;;;;;;5087592;28;20778;-91
2023/06/10 07:50:52;;;;;;;7.30;4.50;;;21.80;99.90;;;;;;5105457;28;20990;-88
2023/06/10 07:53:18;;;;;;;6.90;4.00;;;21.80;99.90;;;;;;5087466;28;20883;-90
2023/06/10 07:55:43;;;;;;;7.10;4.40;;;21.90;99.90;;;;;;5122162;27;20393;-90
2023/06/10 07:58:10;;;;;;;6.90;4.27;;;22.40;99.90;;;;;;5070899;28;20408;-89
2023/06/10 08:00:35;;;;;;;7.75;4.30;;;22.50;99.90;;;;;;5071332;28;20428;-90
2023/06/10 08:03:01;;;;;;;6.20;3.70;;;22.60;99.90;;;;;;5087584;28;20898;-90
2023/06/10 08:05:27;;;;;;;6.65;4.18;;;22.40;97.40;;;;;;5087762;28;20408;-90
2023/06/10 08:07:52;;;;;;;8.13;4.20;;;22.40;97.10;;;;;;5087923;28;20936;-87
2023/06/10 08:10:18;;;;;;;7.07;4.15;;;22.60;97.70;;;;;;5087464;28;20396;-89
2023/06/10 08:12:43;;;;;;;8.30;4.17;;;22.60;96.00;;;;;;5087783;28;20408;-89
2023/06/10 08:15:09;;;;;;;7.80;4.30;;;22.70;94.60;;;;;;5070966;28;20400;-90
2023/06/10 08:17:35;;;;;;;8.93;4.47;;;22.70;94.50;;;;;;5071357;28;20477;-90
2023/06/10 08:20:01;;;;;;;6.82;4.00;;;23.00;96.30;;;;;;5104337;28;20643;-91
2023/06/10 08:22:29;;;;;;;7.47;4.43;;;22.90;97.90;;;;;;5070801;28;20420;-90
2023/06/10 08:24:55;;;;;;;7.25;4.03;;;23.00;94.40;;;;;;5087508;28;20407;-88
2023/06/10 08:27:21;;;;;;;7.88;4.43;;;23.20;95.70;;;;;;5087069;28;20400;-89
2023/06/10 08:29:47;;;;;;;8.90;4.53;;;23.20;91.50;;;;;;5070826;28;20989;-90
2023/06/10 08:32:13;;;;;;;6.90;4.55;;;23.30;93.30;;;;;;5087557;28;20400;-88
2023/06/10 08:34:39;;;;;;;7.07;4.53;;;23.30;89.80;;;;;;5087313;28;20462;-90
2023/06/10 08:37:05;;;;;;;6.78;4.22;;;23.40;91.60;;;;;;5086952;28;20484;-88
2023/06/10 08:39:33;;;;;;;9.95;5.43;;;23.30;94.00;;;;;;5070867;28;20905;-91
2023/06/10 08:42:24;;;;;;;6.80;4.47;;;23.40;92.90;;;;;;5121169;27;20975;-87
2023/06/10 08:44:58;;;;;;;7.18;4.45;;;23.50;85.50;;;;;;5070546;28;20408;-88
2023/06/10 08:47:25;;;;;;;6.03;3.95;;;23.50;82.70;;;;;;5070617;28;20835;-90
2023/06/10 08:49:53;;;;;;;6.95;3.80;;;23.70;89.40;;;;;;5121088;27;20420;-89
2023/06/10 08:52:20;;;;;;;6.45;4.25;;;23.70;81.50;;;;;;5123596;27;20428;-90
2023/06/10 08:54:54;;;;;;;6.47;4.40;;;23.70;85.90;;;;;;5074295;28;20959;-90
2023/06/10 08:57:21;;;;;;;8.73;4.47;;;23.80;83.40;;;;;;5090872;28;21272;-88
2023/06/10 08:59:48;;;;;;;6.53;3.90;;;23.90;83.90;;;;;;5091317;28;20980;-90
2023/06/10 09:02:15;;;;;;;6.18;3.92;;;24.00;81.60;;;;;;5090656;28;20424;-88
2023/06/10 09:04:45;;;;;;;6.20;3.90;;;24.00;80.00;;;;;;5091281;28;20404;-90
2023/06/10 09:07:12;;;;;;;4.90;3.38;;;24.20;81.30;;;;;;5090632;28;20411;-90
2023/06/10 09:09:38;;;;;;;5.65;3.70;;;24.20;79.10;;;;;;5091338;28;20404;-89
2023/06/10 09:12:04;;;;;;;6.25;4.20;;;24.30;73.00;;;;;;5090736;28;20396;-88
2023/06/10 09:14:30;;;;;;;5.97;3.80;;;24.40;86.30;;;;;;5074125;28;20407;-89
2023/06/10 09:16:58;;;;;;;6.90;3.43;;;24.60;83.20;;;;;;5073995;28;20770;-87
2023/06/10 09:19:26;;;;;;;5.00;3.38;;;24.70;82.80;;;;;;5090400;28;20408;-90
2023/06/10 09:21:52;;;;;;;6.35;3.13;;;24.70;65.80;;;;;;5091001;28;20936;-90
2023/06/10 09:24:18;;;;;;;6.60;3.42;;;24.90;74.50;;;;;;5073638;28;20408;-90
2023/06/10 09:26:45;;;;;;;6.47;3.55;;;25.00;73.60;;;;;;5090541;28;20401;-90
2023/06/10 09:29:11;;;;;;;6.20;3.30;;;25.10;69.00;;;;;;5073668;28;20408;-89
2023/06/10 09:31:39;;;;;;;5.57;3.40;;;25.20;64.00;;;;;;5073579;28;20408;-87
2023/06/10 09:34:25;;;;;;;6.55;3.20;;;25.30;59.90;;;;;;5124780;27;20755;-90
2023/06/10 09:36:51;;;;;;;4.80;3.38;;;25.30;64.50;;;;;;5070170;28;20907;-90
2023/06/10 09:39:18;;;;;;;5.53;3.37;;;25.40;59.50;;;;;;5073308;28;20453;-91
2023/06/10 09:41:45;;;;;;;6.28;3.40;;;25.50;65.30;;;;;;5073148;28;20426;-88
2023/06/10 09:44:19;;;;;;;4.72;3.28;;;25.60;65.70;;;;;;5090750;28;20791;-89
2023/06/10 09:46:47;;;;;;;5.25;2.97;;;25.80;64.90;;;;;;5073216;28;20466;-89
2023/06/10 09:49:13;;;;;;;6.30;3.50;;;25.90;68.40;;;;;;5124307;27;20483;-88
2023/06/10 09:51:52;;;;;;;6.20;3.28;;;26.30;62.50;;;;;;5089755;28;20507;-91
2023/06/10 09:54:18;;;;;;;6.68;3.30;;;26.10;63.10;;;;;;5073211;28;20411;-90
2023/06/10 09:56:47;;;;;;;5.67;3.07;;;26.60;59.30;;;;;;5073440;28;20817;-88
2023/06/10 09:59:13;;;;;;;6.33;3.53;;;26.60;57.60;;;;;;5090144;28;20404;-91
2023/06/10 10:01:39;;;;;;;6.03;3.17;;;26.70;62.00;;;;;;5073244;28;20420;-90
2023/06/10 10:04:04;;;;;;;7.13;3.50;;;26.90;60.00;;;;;;5071494;28;20404;-89
2023/06/10 10:06:30;;;;;;;5.35;3.45;;;27.00;66.70;;;;;;5072960;28;20900;-90
2023/06/10 10:08:56;;;;;;;5.40;3.20;;;27.50;56.40;;;;;;5089950;28;20491;-91
2023/06/10 10:11:22;;;;;;;4.63;2.90;;;27.50;53.80;;;;;;5089515;28;20436;-88
2023/06/10 10:13:50;;;;;;;5.10;3.10;;;27.60;54.00;;;;;;5089876;28;20385;-90
2023/06/10 10:16:45;;;;;;;5.28;2.80;;;27.70;54.10;;;;;;5123840;27;20403;-89
2023/06/10 10:19:21;;;;;;;5.72;3.00;;;27.80;55.10;;;;;;5089156;28;20416;-89
2023/06/10 10:22:00;;;;;;;4.95;2.90;;;28.10;53.70;;;;;;5123642;27;20711;-89
2023/06/10 10:24:33;;;;;;;4.27;2.47;;;28.30;50.90;;;;;;5089266;28;20393;-88
2023/06/10 10:27:06;;;;;;;4.88;2.58;;;28.50;48.20;;;;;;5072536;28;20480;-91
2023/06/10 10:29:38;;;;;;;4.82;2.80;;;28.70;49.00;;;;;;5123465;27;20400;-90
2023/06/10 10:32:06;;;;;;;4.80;2.72;;;28.90;47.00;;;;;;5072606;28;20401;-91
2023/06/10 10:34:43;;;;;;;4.47;2.50;;;29.20;47.90;;;;;;5089072;28;20397;-89
2023/06/10 10:37:08;;;;;;;4.63;2.22;;;29.50;45.50;;;;;;5072186;28;20409;-90
2023/06/10 10:39:36;;;;;;;4.40;2.90;;;29.70;44.20;;;;;;5106543;28;20406;-90
2023/06/10 10:42:04;;;;;;;3.53;2.57;;;29.80;44.20;;;;;;5122879;27;20512;-90
2023/06/10 10:44:31;;;;;;;4.03;2.35;;;30.00;44.50;;;;;;5072398;28;20401;-88
2023/06/10 10:47:02;;;;;;;3.75;2.15;;;30.30;45.20;;;;;;5071866;28;20438;-90
2023/06/10 10:49:28;;;;;;;4.03;2.25;;;30.50;43.50;;;;;;5072306;28;20425;-93
2023/06/10 10:52:01;;;;;;;3.72;2.30;;;30.80;40.70;;;;;;5071962;28;20485;-89
2023/06/10 10:54:31;;;;;;;4.05;2.50;;;31.00;40.00;;;;;;5071931;28;20531;-89
2023/06/10 10:57:13;;;;;;;4.78;2.60;;;31.30;40.80;;;;;;5072259;28;20404;-91
2023/06/10 10:59:51;;;;;;;5.30;2.33;;;31.60;40.00;;;;;;5088960;28;20907;-91
2023/06/10 11:02:38;;;;;;;3.92;2.33;;;31.90;41.20;;;;;;5071931;28;20444;-91
2023/06/10 11:05:04;;;;;;;3.42;2.35;;;32.20;36.60;;;;;;5071832;28;20436;-90
2023/06/10 11:07:32;;;;;;;3.78;2.40;;;32.20;37.60;;;;;;5088155;28;20389;-90
2023/06/10 11:10:00;;;;;;;3.25;2.30;;;32.30;34.60;;;;;;5088928;28;20411;-90
2023/06/10 11:12:38;;;;;;;4.33;2.30;;;32.40;38.50;;;;;;5088719;28;20479;-89
2023/06/10 11:15:04;;;;;;;5.13;2.13;;;32.70;38.10;;;;;;5088868;28;20695;-89
2023/06/10 11:17:30;;;;;;;3.15;1.95;;;32.90;36.80;;;;;;5071411;28;20404;-89
2023/06/10 11:19:58;;;;;;;4.30;2.10;;;33.00;35.30;;;;;;5088591;28;20459;-88
2023/06/10 11:22:24;;;;;;;4.50;2.20;;;33.20;37.80;;;;;;5088464;28;20416;-88
2023/06/10 11:24:50;;;;;;;4.70;2.17;;;33.40;35.70;;;;;;5105839;28;20449;-89
2023/06/10 11:27:24;;;;;;;4.63;2.42;;;33.60;37.10;;;;;;5071495;28;20411;-89
2023/06/10 11:30:19;;;;;;;4.55;2.38;;;33.70;36.00;;;;;;5071459;28;20451;-88
2023/06/10 11:32:51;;;;;;;4.03;1.98;;;33.80;33.90;;;;;;5072113;28;20444;-89
2023/06/10 11:35:18;;;;;;;4.20;2.20;;;33.60;35.10;;;;;;5071302;28;20487;-88
2023/06/10 11:37:43;;;;;;;4.28;2.35;;;33.60;35.50;;;;;;5071046;28;20404;-87
2023/06/10 11:40:09;;;;;;;4.80;2.00;;;33.70;34.90;;;;;;5088962;28;20420;-87
2023/06/10 11:42:40;;;;;;;5.10;1.83;;;33.80;35.30;;;;;;5087316;28;20431;-88
2023/06/10 11:45:08;;;;;;;3.33;1.88;;;34.00;35.10;;;;;;5088752;28;20415;-87
2023/06/10 11:47:34;;;;;;;4.25;1.80;;;34.10;32.10;;;;;;5071533;28;20396;-88
2023/06/10 11:49:59;;;;;;;4.30;2.03;;;33.90;33.50;;;;;;5071741;28;20971;-89
2023/06/10 11:52:33;;;;;;;3.70;2.10;;;33.90;34.20;;;;;;5070995;28;20408;-87
2023/06/10 11:54:59;;;;;;;4.00;2.13;;;33.90;33.10;;;;;;5088091;28;20408;-87
2023/06/10 11:57:25;;;;;;;3.85;1.90;;;33.90;33.60;;;;;;5088696;28;20935;-89
2023/06/10 11:59:50;;;;;;;3.27;1.70;;;34.00;33.60;;;;;;5071529;28;20397;-88
2023/06/10 12:02:17;;;;;;;4.20;2.17;;;34.20;33.70;;;;;;5105372;28;20541;-92
2023/06/10 12:04:42;;;;;;;3.50;1.60;;;34.40;32.30;;;;;;5087999;28;20716;-88
2023/06/10 12:07:08;;;;;;;3.90;1.63;;;34.50;34.90;;;;;;5087919;28;20444;-90
2023/06/10 12:09:34;;;;;;;3.13;1.90;;;34.40;32.30;;;;;;5070873;28;20400;-88
2023/06/10 12:12:03;;;;;;;3.78;1.75;;;34.50;32.30;;;;;;5122007;27;20434;-88
2023/06/10 12:14:58;;;;;;;3.30;1.92;;;34.80;32.90;;;;;;5071160;28;20880;-88
2023/06/10 12:17:33;;;;;;;3.97;1.85;;;35.10;34.10;;;;;;5087737;28;20764;-88
2023/06/10 12:20:00;;;;;;;4.03;1.75;;;35.40;32.30;;;;;;5088235;28;20400;-89
2023/06/10 12:22:26;;;;;;;3.60;1.95;;;35.50;31.80;;;;;;5070444;28;20827;-90
2023/06/10 12:25:06;;;;;;;3.83;2.27;;;35.30;30.40;;;;;;5071074;28;20428;-88
2023/06/10 12:27:34;;;;;;;3.67;1.90;;;35.10;31.60;;;;;;5090418;28;20495;-89
2023/06/10 12:30:03;;;;;;;3.10;1.88;;;35.30;32.20;;;;;;5091660;28;20408;-88
2023/06/10 12:32:35;;;;;;;2.80;1.95;;;35.60;32.20;;;;;;5092421;28;20396;-88
2023/06/10 12:35:06;;;;;;;3.30;1.80;;;35.70;30.40;;;;;;5074918;28;20408;-88
2023/06/10 12:37:35;;;;;;;4.87;2.40;;;36.00;34.50;;;;;;5091650;28;20416;-89
2023/06/10 12:40:03;;;;;;;5.07;2.50;;;36.20;36.30;;;;;;5074666;28;20418;-89
2023/06/10 12:42:34;;;;;;;3.95;2.45;;;36.30;36.80;;;;;;5075067;28;20459;-89